SWR8VD LSZH-EIDW
Flight info
| Callsign | SWR8VD |
|---|---|
| Flight time | N/A |
| Altitude | 36000 |
| Route | VEBIT T10 TORPA DCT REKLA DCT RLP DCT ROTSI DCT KOTUN DCT AMAXA DCT VESAN DCT RATUK DCT SOVAT L613 SANDY DCT OKSAW DCT TEWXI DCT LANON L18 LIPGO |
| Aircraft | A320/M-SDE3FGHIRWY/LB1 |
Departure
| Time | 2026-02-20 10:54 |
|---|---|
| Airport | Zürich Airport (LSZH) |
Arrival
| Time | N/A |
|---|---|
| Airport | Dublin Airport (EIDW) |
| Time | Latitude | Longitude | Altitude | Speed | Heading |
|---|---|---|---|---|---|
| 2026-02-20 10:24 | 47.45437 | 8.55569 | 1407 ft | 0 kts | 186° |
| 2026-02-20 10:45 | 47.45438 | 8.55569 | 1379 ft | 1 kts | 186° |
| 2026-02-20 10:45 | 47.45452 | 8.55571 | 1409 ft | 3 kts | 184° |
| 2026-02-20 10:45 | 47.45472 | 8.55573 | 1407 ft | 3 kts | 179° |
| 2026-02-20 10:46 | 47.45492 | 8.55571 | 1407 ft | 3 kts | 170° |
| 2026-02-20 10:46 | 47.45511 | 8.55564 | 1411 ft | 3 kts | 147° |
| 2026-02-20 10:46 | 47.45522 | 8.55549 | 1410 ft | 2 kts | 102° |
| 2026-02-20 10:46 | 47.45523 | 8.55544 | 1410 ft | 0 kts | 96° |
| 2026-02-20 10:48 | 47.45523 | 8.55545 | 1410 ft | 1 kts | 96° |
| 2026-02-20 10:48 | 47.45519 | 8.55608 | 1409 ft | 11 kts | 96° |
| 2026-02-20 10:49 | 47.45507 | 8.55768 | 1410 ft | 19 kts | 97° |
| 2026-02-20 10:49 | 47.45492 | 8.55968 | 1411 ft | 20 kts | 96° |
| 2026-02-20 10:49 | 47.45481 | 8.56184 | 1407 ft | 22 kts | 86° |
| 2026-02-20 10:49 | 47.45554 | 8.56351 | 1413 ft | 18 kts | 41° |
| 2026-02-20 10:50 | 47.45592 | 8.56516 | 1415 ft | 17 kts | 93° |
| 2026-02-20 10:50 | 47.45580 | 8.56691 | 1418 ft | 17 kts | 96° |
| 2026-02-20 10:50 | 47.45567 | 8.56858 | 1420 ft | 11 kts | 96° |
| 2026-02-20 10:50 | 47.45563 | 8.56964 | 1421 ft | 9 kts | 83° |
| 2026-02-20 10:51 | 47.45629 | 8.57025 | 1425 ft | 9 kts | 10° |
| 2026-02-20 10:51 | 47.45665 | 8.56971 | 1424 ft | 7 kts | 281° |
| 2026-02-20 10:51 | 47.45668 | 8.56935 | 1424 ft | 0 kts | 275° |
| 2026-02-20 10:53 | 47.45669 | 8.56914 | 1423 ft | 10 kts | 275° |
| 2026-02-20 10:53 | 47.45701 | 8.56480 | 1416 ft | 81 kts | 276° |
| 2026-02-20 10:53 | 47.45784 | 8.55331 | 1398 ft | 142 kts | 276° |
| 2026-02-20 10:53 | 47.45923 | 8.53728 | 1758 ft | 161 kts | 278° |
| 2026-02-20 10:54 | 47.46048 | 8.52090 | 2625 ft | 160 kts | 276° |
| 2026-02-20 10:54 | 47.46158 | 8.50467 | 3477 ft | 157 kts | 276° |
| 2026-02-20 10:54 | 47.46259 | 8.48831 | 4144 ft | 166 kts | 272° |
| 2026-02-20 10:54 | 47.45940 | 8.47081 | 4471 ft | 193 kts | 239° |
| 2026-02-20 10:55 | 47.44971 | 8.45520 | 4755 ft | 218 kts | 231° |
| 2026-02-20 10:55 | 47.43927 | 8.43722 | 5083 ft | 243 kts | 234° |
| 2026-02-20 10:55 | 47.42833 | 8.41712 | 5739 ft | 257 kts | 234° |
| 2026-02-20 10:55 | 47.41708 | 8.39629 | 6649 ft | 261 kts | 234° |
| 2026-02-20 10:56 | 47.40578 | 8.37552 | 7525 ft | 266 kts | 233° |
| 2026-02-20 10:56 | 47.39786 | 8.36109 | 8106 ft | 269 kts | 233° |
| 2026-02-20 10:56 | 47.38297 | 8.33141 | 9265 ft | 275 kts | 240° |
| 2026-02-20 10:56 | 47.37341 | 8.30668 | 10099 ft | 281 kts | 243° |
| 2026-02-20 10:57 | 47.36410 | 8.28060 | 10606 ft | 298 kts | 244° |
| 2026-02-20 10:57 | 47.35432 | 8.25231 | 10902 ft | 321 kts | 245° |
| 2026-02-20 10:57 | 47.34408 | 8.22244 | 11508 ft | 331 kts | 245° |
| 2026-02-20 10:57 | 47.33700 | 8.20183 | 11991 ft | 335 kts | 245° |
| 2026-02-20 10:58 | 47.32636 | 8.17098 | 12730 ft | 341 kts | 245° |
| 2026-02-20 10:58 | 47.31548 | 8.13960 | 13482 ft | 346 kts | 245° |
| 2026-02-20 10:58 | 47.30439 | 8.10782 | 14212 ft | 352 kts | 245° |
| 2026-02-20 10:58 | 47.29307 | 8.07555 | 14858 ft | 357 kts | 245° |
| 2026-02-20 10:59 | 47.28213 | 8.04260 | 15521 ft | 360 kts | 251° |
| 2026-02-20 10:59 | 47.27512 | 8.00730 | 16205 ft | 360 kts | 263° |
| 2026-02-20 10:59 | 47.27301 | 7.97117 | 16889 ft | 359 kts | 274° |
| 2026-02-20 10:59 | 47.27545 | 7.93466 | 17570 ft | 359 kts | 282° |
| 2026-02-20 11:00 | 47.27906 | 7.89806 | 18267 ft | 363 kts | 282° |
| 2026-02-20 11:00 | 47.28267 | 7.86115 | 18883 ft | 366 kts | 282° |
| 2026-02-20 11:00 | 47.28624 | 7.82391 | 19479 ft | 369 kts | 282° |
| 2026-02-20 11:00 | 47.28978 | 7.78641 | 20098 ft | 371 kts | 283° |
| 2026-02-20 11:01 | 47.29333 | 7.74866 | 20705 ft | 373 kts | 283° |
| 2026-02-20 11:01 | 47.29690 | 7.71073 | 21311 ft | 375 kts | 283° |
| 2026-02-20 11:01 | 47.30048 | 7.67248 | 21913 ft | 378 kts | 284° |
| 2026-02-20 11:01 | 47.30438 | 7.63404 | 22523 ft | 379 kts | 288° |
| 2026-02-20 11:02 | 47.31154 | 7.59693 | 23107 ft | 377 kts | 294° |
| 2026-02-20 11:02 | 47.31966 | 7.56008 | 23673 ft | 379 kts | 294° |
| 2026-02-20 11:02 | 47.32780 | 7.52302 | 24192 ft | 381 kts | 295° |
| 2026-02-20 11:02 | 47.33593 | 7.48577 | 24709 ft | 383 kts | 295° |
| 2026-02-20 11:03 | 47.34406 | 7.44827 | 25212 ft | 383 kts | 295° |
| 2026-02-20 11:03 | 47.35212 | 7.41085 | 25710 ft | 384 kts | 295° |
| 2026-02-20 11:03 | 47.36018 | 7.37325 | 26171 ft | 385 kts | 295° |
| 2026-02-20 11:03 | 47.36828 | 7.33554 | 26607 ft | 387 kts | 295° |
| 2026-02-20 11:04 | 47.37642 | 7.29772 | 27021 ft | 388 kts | 295° |
| 2026-02-20 11:04 | 47.38461 | 7.25970 | 27418 ft | 389 kts | 295° |
| 2026-02-20 11:04 | 47.39281 | 7.22148 | 27861 ft | 391 kts | 295° |
| 2026-02-20 11:04 | 47.40101 | 7.18315 | 28279 ft | 393 kts | 295° |
| 2026-02-20 11:05 | 47.40873 | 7.14432 | 28685 ft | 398 kts | 290° |
| 2026-02-20 11:05 | 47.41470 | 7.10429 | 29097 ft | 400 kts | 290° |
| 2026-02-20 11:05 | 47.42065 | 7.06404 | 29478 ft | 401 kts | 289° |
| 2026-02-20 11:05 | 47.42657 | 7.02368 | 29876 ft | 402 kts | 289° |
| 2026-02-20 11:06 | 47.43249 | 6.98323 | 30251 ft | 404 kts | 289° |
| 2026-02-20 11:06 | 47.43843 | 6.94262 | 30568 ft | 405 kts | 289° |
| 2026-02-20 11:06 | 47.44435 | 6.90189 | 30875 ft | 406 kts | 289° |
| 2026-02-20 11:06 | 47.45021 | 6.86155 | 31173 ft | 407 kts | 289° |
| 2026-02-20 11:07 | 47.45623 | 6.82008 | 31477 ft | 408 kts | 289° |
| 2026-02-20 11:07 | 47.46217 | 6.77902 | 31743 ft | 409 kts | 289° |
| 2026-02-20 11:07 | 47.46801 | 6.73847 | 32070 ft | 408 kts | 289° |
| 2026-02-20 11:07 | 47.47388 | 6.69753 | 32491 ft | 406 kts | 289° |
| 2026-02-20 11:08 | 47.47943 | 6.65674 | 32889 ft | 405 kts | 285° |
| 2026-02-20 11:08 | 47.48256 | 6.61538 | 33340 ft | 404 kts | 283° |
| 2026-02-20 11:08 | 47.48549 | 6.57427 | 33789 ft | 401 kts | 283° |
| 2026-02-20 11:08 | 47.48842 | 6.53344 | 34209 ft | 398 kts | 283° |
| 2026-02-20 11:09 | 47.49136 | 6.49287 | 34562 ft | 396 kts | 283° |
| 2026-02-20 11:09 | 47.49430 | 6.45245 | 34876 ft | 395 kts | 283° |
| 2026-02-20 11:09 | 47.49722 | 6.41209 | 35169 ft | 395 kts | 283° |
| 2026-02-20 11:09 | 47.50010 | 6.37175 | 35444 ft | 394 kts | 283° |
| 2026-02-20 11:10 | 47.50293 | 6.33148 | 35717 ft | 394 kts | 283° |
| 2026-02-20 11:10 | 47.50574 | 6.29120 | 35972 ft | 394 kts | 283° |
| 2026-02-20 11:10 | 47.50853 | 6.25093 | 36178 ft | 393 kts | 282° |
| 2026-02-20 11:10 | 47.51128 | 6.21082 | 36263 ft | 390 kts | 282° |
| 2026-02-20 11:11 | 47.51667 | 6.13159 | 36277 ft | 386 kts | 282° |
| 2026-02-20 11:11 | 47.52206 | 6.05269 | 36273 ft | 385 kts | 282° |
| 2026-02-20 11:12 | 47.52739 | 5.97381 | 36279 ft | 385 kts | 282° |
| 2026-02-20 11:12 | 47.53362 | 5.89532 | 36279 ft | 380 kts | 289° |
| 2026-02-20 11:13 | 47.55393 | 5.82485 | 36261 ft | 369 kts | 307° |
| 2026-02-20 11:13 | 47.58742 | 5.76768 | 36264 ft | 368 kts | 314° |
| 2026-02-20 11:14 | 47.62208 | 5.71192 | 36266 ft | 368 kts | 313° |
| 2026-02-20 11:14 | 47.65668 | 5.65590 | 36277 ft | 368 kts | 313° |
| 2026-02-20 11:15 | 47.69127 | 5.59969 | 36283 ft | 369 kts | 313° |
| 2026-02-20 11:15 | 47.72596 | 5.54340 | 36284 ft | 370 kts | 313° |
| 2026-02-20 11:16 | 47.76077 | 5.48702 | 36282 ft | 370 kts | 313° |
| 2026-02-20 11:16 | 47.79557 | 5.43051 | 36263 ft | 371 kts | 313° |
| 2026-02-20 11:17 | 47.83027 | 5.37375 | 36272 ft | 371 kts | 313° |
| 2026-02-20 11:17 | 47.86499 | 5.31690 | 36276 ft | 371 kts | 313° |
| 2026-02-20 11:18 | 47.89977 | 5.25996 | 36289 ft | 372 kts | 312° |
| 2026-02-20 11:18 | 47.93455 | 5.20290 | 36297 ft | 372 kts | 313° |
| 2026-02-20 11:19 | 47.96940 | 5.14572 | 36291 ft | 372 kts | 312° |
| 2026-02-20 11:19 | 48.00396 | 5.08872 | 36277 ft | 373 kts | 311° |
| 2026-02-20 11:20 | 48.03873 | 5.03116 | 36276 ft | 373 kts | 311° |
| 2026-02-20 11:20 | 48.07351 | 4.97342 | 36279 ft | 374 kts | 312° |
| 2026-02-20 11:21 | 48.10836 | 4.91566 | 36283 ft | 374 kts | 312° |
| 2026-02-20 11:21 | 48.14314 | 4.85773 | 36289 ft | 374 kts | 311° |
| 2026-02-20 11:22 | 48.17795 | 4.79962 | 36284 ft | 375 kts | 311° |
| 2026-02-20 11:22 | 48.21284 | 4.74132 | 36281 ft | 376 kts | 311° |
| 2026-02-20 11:23 | 48.24775 | 4.68291 | 36270 ft | 376 kts | 311° |
| 2026-02-20 11:23 | 48.28268 | 4.62437 | 36274 ft | 376 kts | 311° |
| 2026-02-20 11:24 | 48.31756 | 4.56575 | 36276 ft | 377 kts | 311° |
| 2026-02-20 11:24 | 48.35242 | 4.50689 | 36300 ft | 377 kts | 311° |
| 2026-02-20 11:25 | 48.38730 | 4.44791 | 36298 ft | 377 kts | 311° |
| 2026-02-20 11:25 | 48.42197 | 4.38925 | 36303 ft | 378 kts | 311° |
| 2026-02-20 11:26 | 48.45688 | 4.33008 | 36303 ft | 378 kts | 311° |
| 2026-02-20 11:26 | 48.49174 | 4.27063 | 36282 ft | 380 kts | 310° |
| 2026-02-20 11:27 | 48.52680 | 4.21082 | 36268 ft | 381 kts | 310° |
| 2026-02-20 11:27 | 48.56198 | 4.15077 | 36272 ft | 382 kts | 310° |
| 2026-02-20 11:28 | 48.59723 | 4.09045 | 36292 ft | 383 kts | 310° |
| 2026-02-20 11:28 | 48.63244 | 4.02989 | 36287 ft | 384 kts | 310° |
| 2026-02-20 11:29 | 48.66771 | 3.96917 | 36288 ft | 384 kts | 310° |
| 2026-02-20 11:29 | 48.70296 | 3.90842 | 36282 ft | 385 kts | 310° |
| 2026-02-20 11:30 | 48.74154 | 3.85239 | 36286 ft | 387 kts | 322° |
| 2026-02-20 11:30 | 48.78526 | 3.80493 | 36279 ft | 387 kts | 322° |
| 2026-02-20 11:31 | 48.82894 | 3.75733 | 36276 ft | 386 kts | 322° |
| 2026-02-20 11:31 | 48.87252 | 3.70957 | 36262 ft | 386 kts | 322° |
| 2026-02-20 11:32 | 48.91607 | 3.66171 | 36262 ft | 386 kts | 322° |
| 2026-02-20 11:33 | 48.98147 | 3.58985 | 36263 ft | 387 kts | 322° |
| 2026-02-20 11:33 | 49.02502 | 3.54175 | 36277 ft | 387 kts | 322° |
| 2026-02-20 11:34 | 49.06853 | 3.49352 | 36272 ft | 386 kts | 322° |
| 2026-02-20 11:34 | 49.11198 | 3.44534 | 36272 ft | 386 kts | 322° |
| 2026-02-20 11:35 | 49.15538 | 3.39721 | 36264 ft | 386 kts | 322° |
| 2026-02-20 11:35 | 49.19847 | 3.34931 | 36262 ft | 386 kts | 322° |
| 2026-02-20 11:36 | 49.24180 | 3.30096 | 36260 ft | 385 kts | 321° |
| 2026-02-20 11:36 | 49.28509 | 3.25251 | 36277 ft | 385 kts | 321° |
| 2026-02-20 11:37 | 49.32835 | 3.20396 | 36261 ft | 385 kts | 321° |
| 2026-02-20 11:37 | 49.37165 | 3.15537 | 36259 ft | 385 kts | 321° |
| 2026-02-20 11:38 | 49.41489 | 3.10674 | 36244 ft | 385 kts | 321° |
| 2026-02-20 11:38 | 49.45810 | 3.05798 | 36249 ft | 385 kts | 321° |
| 2026-02-20 11:39 | 49.50126 | 3.00917 | 36265 ft | 385 kts | 321° |
| 2026-02-20 11:39 | 49.54436 | 2.96030 | 36256 ft | 385 kts | 321° |
| 2026-02-20 11:40 | 49.58744 | 2.91126 | 36246 ft | 385 kts | 321° |
| 2026-02-20 11:40 | 49.63048 | 2.86222 | 36248 ft | 385 kts | 321° |
| 2026-02-20 11:41 | 49.67357 | 2.81312 | 36240 ft | 385 kts | 321° |
| 2026-02-20 11:41 | 49.71662 | 2.76395 | 36261 ft | 385 kts | 320° |
| 2026-02-20 11:42 | 49.75962 | 2.71467 | 36250 ft | 385 kts | 320° |
| 2026-02-20 11:42 | 49.80277 | 2.66560 | 36243 ft | 385 kts | 321° |
| 2026-02-20 11:43 | 49.84636 | 2.61749 | 36242 ft | 385 kts | 321° |
| 2026-02-20 11:43 | 49.89001 | 2.56943 | 36234 ft | 385 kts | 321° |
| 2026-02-20 11:44 | 49.93323 | 2.52143 | 36232 ft | 384 kts | 321° |
| 2026-02-20 11:44 | 49.96960 | 2.48084 | 36250 ft | 384 kts | 320° |
| 2026-02-20 11:45 | 50.02005 | 2.42438 | 36233 ft | 384 kts | 320° |
| 2026-02-20 11:45 | 50.05636 | 2.38353 | 36225 ft | 384 kts | 320° |
| 2026-02-20 11:46 | 50.09974 | 2.33484 | 36228 ft | 384 kts | 320° |
| 2026-02-20 11:46 | 50.14308 | 2.28602 | 36216 ft | 384 kts | 320° |
| 2026-02-20 11:47 | 50.18645 | 2.23718 | 36238 ft | 384 kts | 320° |
| 2026-02-20 11:47 | 50.22975 | 2.18832 | 36219 ft | 384 kts | 320° |
| 2026-02-20 11:48 | 50.27302 | 2.13922 | 36209 ft | 384 kts | 319° |
| 2026-02-20 11:48 | 50.31620 | 2.08998 | 36201 ft | 384 kts | 319° |
| 2026-02-20 11:49 | 50.35934 | 2.04064 | 36195 ft | 384 kts | 319° |
| 2026-02-20 11:49 | 50.40134 | 1.98920 | 36188 ft | 382 kts | 315° |
| 2026-02-20 11:50 | 50.44115 | 1.93415 | 36197 ft | 381 kts | 314° |
| 2026-02-20 11:50 | 50.48042 | 1.87894 | 36187 ft | 382 kts | 314° |
| 2026-02-20 11:51 | 50.52038 | 1.82384 | 36182 ft | 382 kts | 314° |
| 2026-02-20 11:51 | 50.56052 | 1.76894 | 36182 ft | 382 kts | 314° |
| 2026-02-20 11:52 | 50.60067 | 1.71397 | 36181 ft | 382 kts | 314° |
| 2026-02-20 11:52 | 50.64070 | 1.65880 | 36185 ft | 382 kts | 314° |
| 2026-02-20 11:53 | 50.68076 | 1.60357 | 36175 ft | 383 kts | 314° |
| 2026-02-20 11:53 | 50.72086 | 1.54820 | 36153 ft | 383 kts | 314° |
| 2026-02-20 11:54 | 50.76091 | 1.49259 | 36148 ft | 383 kts | 314° |
| 2026-02-20 11:54 | 50.80093 | 1.43690 | 36140 ft | 384 kts | 314° |
| 2026-02-20 11:55 | 50.84096 | 1.38103 | 36142 ft | 384 kts | 313° |
| 2026-02-20 11:55 | 50.88108 | 1.32495 | 36163 ft | 385 kts | 313° |
| 2026-02-20 11:56 | 50.92124 | 1.26871 | 36154 ft | 386 kts | 313° |
| 2026-02-20 11:56 | 50.96146 | 1.21230 | 36153 ft | 386 kts | 313° |
| 2026-02-20 11:57 | 51.00172 | 1.15572 | 36155 ft | 387 kts | 313° |